sensor_id;sensor_type;location;lat;lon;timestamp;pressure;altitude;pressure_sealevel;temperature;humidity
59409;BME280;45213;32.654;-115.458;2023-02-28T00:00:13;101633.44;;;21.53;24.34
59409;BME280;45213;32.654;-115.458;2023-02-28T00:02:41;101630.88;;;21.48;24.32
59409;BME280;45213;32.654;-115.458;2023-02-28T00:05:10;101630.13;;;21.79;24.13
59409;BME280;45213;32.654;-115.458;2023-02-28T00:07:38;101635.22;;;21.11;24.80
59409;BME280;45213;32.654;-115.458;2023-02-28T00:10:06;101621.78;;;21.18;25.47
59409;BME280;45213;32.654;-115.458;2023-02-28T00:12:34;101622.41;;;21.31;25.51
59409;BME280;45213;32.654;-115.458;2023-02-28T00:15:02;101627.03;;;21.21;24.78
59409;BME280;45213;32.654;-115.458;2023-02-28T00:17:31;101629.09;;;21.07;24.90
59409;BME280;45213;32.654;-115.458;2023-02-28T00:19:57;101622.13;;;20.59;26.64
59409;BME280;45213;32.654;-115.458;2023-02-28T00:22:40;101611.63;;;20.53;27.45
59409;BME280;45213;32.654;-115.458;2023-02-28T00:25:07;101612.16;;;20.74;27.16
59409;BME280;45213;32.654;-115.458;2023-02-28T00:27:35;101623.44;;;20.35;27.84
59409;BME280;45213;32.654;-115.458;2023-02-28T00:30:06;101622.31;;;20.47;27.84
59409;BME280;45213;32.654;-115.458;2023-02-28T00:32:33;101636.44;;;20.46;27.71
59409;BME280;45213;32.654;-115.458;2023-02-28T00:35:01;101624.22;;;20.40;27.39
59409;BME280;45213;32.654;-115.458;2023-02-28T00:37:28;101632.78;;;20.56;26.69
59409;BME280;45213;32.654;-115.458;2023-02-28T00:39:58;101626.53;;;20.60;26.42
59409;BME280;45213;32.654;-115.458;2023-02-28T00:42:24;101625.47;;;20.69;26.82
59409;BME280;45213;32.654;-115.458;2023-02-28T00:44:51;101633.44;;;20.68;25.85
59409;BME280;45213;32.654;-115.458;2023-02-28T00:47:18;101634.47;;;20.60;26.65
59409;BME280;45213;32.654;-115.458;2023-02-28T00:49:45;101628.72;;;20.35;27.90
59409;BME280;45213;32.654;-115.458;2023-02-28T00:52:11;101634.84;;;19.86;29.19
59409;BME280;45213;32.654;-115.458;2023-02-28T00:54:38;101622.81;;;19.65;29.61
59409;BME280;45213;32.654;-115.458;2023-02-28T00:57:04;101628.53;;;19.36;30.58
59409;BME280;45213;32.654;-115.458;2023-02-28T00:59:31;101624.31;;;19.21;31.09
59409;BME280;45213;32.654;-115.458;2023-02-28T01:01:58;101630.63;;;19.11;31.38
59409;BME280;45213;32.654;-115.458;2023-02-28T01:04:26;101632.59;;;18.93;31.54
59409;BME280;45213;32.654;-115.458;2023-02-28T01:06:53;101637.00;;;18.94;31.57
59409;BME280;45213;32.654;-115.458;2023-02-28T01:09:19;101637.19;;;18.76;32.19
59409;BME280;45213;32.654;-115.458;2023-02-28T01:11:46;101642.56;;;18.64;32.71
59409;BME280;45213;32.654;-115.458;2023-02-28T01:14:14;101637.41;;;18.54;32.80
59409;BME280;45213;32.654;-115.458;2023-02-28T01:16:41;101642.72;;;18.51;32.78
59409;BME280;45213;32.654;-115.458;2023-02-28T01:19:08;101651.53;;;18.49;32.84
59409;BME280;45213;32.654;-115.458;2023-02-28T01:21:35;101650.78;;;18.34;33.38
59409;BME280;45213;32.654;-115.458;2023-02-28T01:24:03;101659.72;;;18.16;33.72
59409;BME280;45213;32.654;-115.458;2023-02-28T01:26:31;101652.78;;;18.05;33.68
59409;BME280;45213;32.654;-115.458;2023-02-28T01:28:58;101649.41;;;17.92;34.10
59409;BME280;45213;32.654;-115.458;2023-02-28T01:31:25;101639.81;;;17.82;34.14
59409;BME280;45213;32.654;-115.458;2023-02-28T01:33:51;101645.94;;;17.81;34.45
59409;BME280;45213;32.654;-115.458;2023-02-28T01:36:20;101652.19;;;17.61;34.68
59409;BME280;45213;32.654;-115.458;2023-02-28T01:38:47;101642.59;;;17.54;34.62
59409;BME280;45213;32.654;-115.458;2023-02-28T01:41:21;101640.84;;;17.51;35.23
59409;BME280;45213;32.654;-115.458;2023-02-28T01:46:14;101637.44;;;17.34;35.71
59409;BME280;45213;32.654;-115.458;2023-02-28T01:48:52;101638.38;;;17.22;36.29
59409;BME280;45213;32.654;-115.458;2023-02-28T01:51:24;101650.69;;;17.17;36.23
59409;BME280;45213;32.654;-115.458;2023-02-28T01:53:56;101658.63;;;17.08;36.63
59409;BME280;45213;32.654;-115.458;2023-02-28T01:56:29;101651.63;;;17.04;36.67
59409;BME280;45213;32.654;-115.458;2023-02-28T01:58:56;101662.13;;;17.01;36.75
59409;BME280;45213;32.654;-115.458;2023-02-28T02:01:25;101658.66;;;16.96;37.27
59409;BME280;45213;32.654;-115.458;2023-02-28T02:04:01;101659.56;;;16.88;37.19
59409;BME280;45213;32.654;-115.458;2023-02-28T02:06:40;101663.09;;;16.78;37.89
59409;BME280;45213;32.654;-115.458;2023-02-28T02:09:10;101661.31;;;16.71;38.05
59409;BME280;45213;32.654;-115.458;2023-02-28T02:11:39;101660.44;;;16.69;38.29
59409;BME280;45213;32.654;-115.458;2023-02-28T02:17:21;101668.38;;;16.58;38.38
59409;BME280;45213;32.654;-115.458;2023-02-28T02:31:05;101670.16;;;16.25;39.24
59409;BME280;45213;32.654;-115.458;2023-02-28T02:37:24;101671.91;;;16.06;39.96
59409;BME280;45213;32.654;-115.458;2023-02-28T02:40:05;101667.50;;;16.01;39.96
59409;BME280;45213;32.654;-115.458;2023-02-28T02:45:15;101678.91;;;15.92;40.14
59409;BME280;45213;32.654;-115.458;2023-02-28T02:47:45;101675.38;;;15.87;40.47
59409;BME280;45213;32.654;-115.458;2023-02-28T02:50:15;101685.91;;;15.84;40.65
59409;BME280;45213;32.654;-115.458;2023-02-28T02:52:48;101681.50;;;15.72;40.80
59409;BME280;45213;32.654;-115.458;2023-02-28T02:55:17;101686.75;;;15.71;40.89
59409;BME280;45213;32.654;-115.458;2023-02-28T02:57:59;101695.44;;;15.59;41.46
59409;BME280;45213;32.654;-115.458;2023-02-28T03:00:34;101690.16;;;15.53;41.59
59409;BME280;45213;32.654;-115.458;2023-02-28T03:03:02;101686.66;;;15.55;41.68
59409;BME280;45213;32.654;-115.458;2023-02-28T03:05:39;101688.44;;;15.58;41.36
59409;BME280;45213;32.654;-115.458;2023-02-28T03:08:08;101682.28;;;15.53;42.02
59409;BME280;45213;32.654;-115.458;2023-02-28T03:10:39;101687.53;;;15.42;42.40
59409;BME280;45213;32.654;-115.458;2023-02-28T03:23:44;101699.69;;;15.28;42.91
59409;BME280;45213;32.654;-115.458;2023-02-28T03:26:20;101694.38;;;15.12;43.66
59409;BME280;45213;32.654;-115.458;2023-02-28T03:29:12;101697.91;;;15.16;43.69
59409;BME280;45213;32.654;-115.458;2023-02-28T03:35:01;101696.97;;;15.04;44.33
59409;BME280;45213;32.654;-115.458;2023-02-28T03:37:33;101699.56;;;15.03;43.94
59409;BME280;45213;32.654;-115.458;2023-02-28T03:40:14;101701.34;;;15.04;44.23
59409;BME280;45213;32.654;-115.458;2023-02-28T03:42:45;101695.22;;;15.02;44.13
59409;BME280;45213;32.654;-115.458;2023-02-28T03:45:18;101696.06;;;15.01;44.25
59409;BME280;45213;32.654;-115.458;2023-02-28T03:50:29;101694.38;;;15.09;43.89
59409;BME280;45213;32.654;-115.458;2023-02-28T03:53:13;101691.69;;;15.03;43.49
59409;BME280;45213;32.654;-115.458;2023-02-28T03:55:48;101696.09;;;15.07;43.85
59409;BME280;45213;32.654;-115.458;2023-02-28T03:58:24;101693.44;;;15.01;44.21
59409;BME280;45213;32.654;-115.458;2023-02-28T04:00:59;101693.44;;;15.01;43.47
59409;BME280;45213;32.654;-115.458;2023-02-28T04:03:37;101692.53;;;14.96;43.44
59409;BME280;45213;32.654;-115.458;2023-02-28T04:06:06;101698.69;;;14.98;43.96
59409;BME280;45213;32.654;-115.458;2023-02-28T04:08:34;101701.34;;;15.07;43.52
59409;BME280;45213;32.654;-115.458;2023-02-28T04:11:05;101711.81;;;14.99;43.90
59409;BME280;45213;32.654;-115.458;2023-02-28T04:13:32;101699.50;;;14.88;44.45
59409;BME280;45213;32.654;-115.458;2023-02-28T04:15:58;101695.94;;;14.76;44.25
59409;BME280;45213;32.654;-115.458;2023-02-28T04:18:25;101706.53;;;14.95;42.69
59409;BME280;45213;32.654;-115.458;2023-02-28T04:20:52;101697.84;;;15.02;42.88
59409;BME280;45213;32.654;-115.458;2023-02-28T04:23:18;101695.16;;;14.96;43.10
59409;BME280;45213;32.654;-115.458;2023-02-28T04:25:45;101696.00;;;14.86;43.95
59409;BME280;45213;32.654;-115.458;2023-02-28T04:28:11;101694.28;;;14.88;43.70
59409;BME280;45213;32.654;-115.458;2023-02-28T04:30:38;101699.47;;;14.85;43.98
59409;BME280;45213;32.654;-115.458;2023-02-28T04:33:05;101696.88;;;14.86;43.71
59409;BME280;45213;32.654;-115.458;2023-02-28T04:35:31;101694.13;;;14.66;43.92
59409;BME280;45213;32.654;-115.458;2023-02-28T04:37:58;101690.63;;;14.63;44.38
59409;BME280;45213;32.654;-115.458;2023-02-28T04:40:24;101697.44;;;14.48;44.24
59409;BME280;45213;32.654;-115.458;2023-02-28T04:42:51;101693.19;;;14.56;44.41
59409;BME280;45213;32.654;-115.458;2023-02-28T04:45:18;101694.03;;;14.55;44.71
59409;BME280;45213;32.654;-115.458;2023-02-28T04:47:44;101700.94;;;14.49;45.09
59409;BME280;45213;32.654;-115.458;2023-02-28T04:50:11;101715.78;;;14.42;45.95
59409;BME280;45213;32.654;-115.458;2023-02-28T04:52:37;101718.38;;;14.40;45.91
59409;BME280;45213;32.654;-115.458;2023-02-28T04:55:04;101717.44;;;14.37;46.08
59409;BME280;45213;32.654;-115.458;2023-02-28T04:57:31;101723.47;;;14.28;46.38
59409;BME280;45213;32.654;-115.458;2023-02-28T04:59:58;101717.28;;;14.18;46.66
59409;BME280;45213;32.654;-115.458;2023-02-28T05:02:24;101721.69;;;14.21;46.72
59409;BME280;45213;32.654;-115.458;2023-02-28T05:04:51;101732.13;;;14.18;46.86
59409;BME280;45213;32.654;-115.458;2023-02-28T05:07:17;101723.34;;;14.11;47.25
59409;BME280;45213;32.654;-115.458;2023-02-28T05:09:44;101725.94;;;14.10;46.30
59409;BME280;45213;32.654;-115.458;2023-02-28T05:12:10;101721.78;;;14.35;44.86
59409;BME280;45213;32.654;-115.458;2023-02-28T05:14:37;101724.63;;;14.55;44.20
59409;BME280;45213;32.654;-115.458;2023-02-28T05:17:04;101727.31;;;14.64;44.33
59409;BME280;45213;32.654;-115.458;2023-02-28T05:19:30;101723.78;;;14.62;44.45
59409;BME280;45213;32.654;-115.458;2023-02-28T05:21:57;101728.13;;;14.60;44.46
59409;BME280;45213;32.654;-115.458;2023-02-28T05:24:24;101726.44;;;14.64;44.47
59409;BME280;45213;32.654;-115.458;2023-02-28T05:26:52;101729.91;;;14.61;44.21
59409;BME280;45213;32.654;-115.458;2023-02-28T05:29:19;101734.31;;;14.68;43.97
59409;BME280;45213;32.654;-115.458;2023-02-28T05:31:46;101732.66;;;14.79;43.75
59409;BME280;45213;32.654;-115.458;2023-02-28T05:34:13;101737.03;;;14.79;43.65
59409;BME280;45213;32.654;-115.458;2023-02-28T05:36:42;101727.41;;;14.76;43.90
59409;BME280;45213;32.654;-115.458;2023-02-28T05:39:09;101730.88;;;14.75;43.82
59409;BME280;45213;32.654;-115.458;2023-02-28T05:41:40;101719.53;;;14.75;43.71
59409;BME280;45213;32.654;-115.458;2023-02-28T05:44:07;101716.91;;;14.75;44.10
59409;BME280;45213;32.654;-115.458;2023-02-28T05:46:34;101727.38;;;14.73;44.43
59409;BME280;45213;32.654;-115.458;2023-02-28T05:49:00;101706.38;;;14.73;44.23
59409;BME280;45213;32.654;-115.458;2023-02-28T05:51:28;101715.13;;;14.72;44.54
59409;BME280;45213;32.654;-115.458;2023-02-28T05:53:54;101709.88;;;14.71;44.58
59409;BME280;45213;32.654;-115.458;2023-02-28T05:56:24;101720.41;;;14.77;44.32
59409;BME280;45213;32.654;-115.458;2023-02-28T05:58:51;101723.03;;;14.74;44.76
59409;BME280;45213;32.654;-115.458;2023-02-28T06:01:34;101716.00;;;14.73;44.83
59409;BME280;45213;32.654;-115.458;2023-02-28T06:04:02;101716.88;;;14.70;44.85
59409;BME280;45213;32.654;-115.458;2023-02-28T06:06:29;101715.13;;;14.72;44.36
59409;BME280;45213;32.654;-115.458;2023-02-28T06:08:56;101700.28;;;14.73;44.77
59409;BME280;45213;32.654;-115.458;2023-02-28T06:11:23;101719.47;;;14.69;44.74
59409;BME280;45213;32.654;-115.458;2023-02-28T06:14:00;101713.34;;;14.68;45.13
59409;BME280;45213;32.654;-115.458;2023-02-28T06:16:28;101713.34;;;14.68;45.13
59409;BME280;45213;32.654;-115.458;2023-02-28T06:18:57;101728.19;;;14.66;45.43
59409;BME280;45213;32.654;-115.458;2023-02-28T06:21:24;101720.31;;;14.61;45.16
59409;BME280;45213;32.654;-115.458;2023-02-28T06:23:51;101735.16;;;14.61;45.45
59409;BME280;45213;32.654;-115.458;2023-02-28T06:26:18;101738.63;;;14.58;45.21
59409;BME280;45213;32.654;-115.458;2023-02-28T06:28:45;101740.28;;;14.52;45.54
59409;BME280;45213;32.654;-115.458;2023-02-28T06:31:14;101750.72;;;14.49;45.63
59409;BME280;45213;32.654;-115.458;2023-02-28T06:33:42;101746.44;;;14.54;45.57
59409;BME280;45213;32.654;-115.458;2023-02-28T06:36:10;101743.78;;;14.49;45.80
59409;BME280;45213;32.654;-115.458;2023-02-28T06:38:39;101746.38;;;14.48;45.83
59409;BME280;45213;32.654;-115.458;2023-02-28T06:41:06;101760.34;;;14.48;45.94
59409;BME280;45213;32.654;-115.458;2023-02-28T06:43:36;101764.69;;;14.43;46.18
59409;BME280;45213;32.654;-115.458;2023-02-28T06:46:05;101762.00;;;14.35;46.53
59409;BME280;45213;32.654;-115.458;2023-02-28T06:48:32;101765.50;;;14.36;46.29
59409;BME280;45213;32.654;-115.458;2023-02-28T06:51:04;101769.00;;;14.38;46.34
59409;BME280;45213;32.654;-115.458;2023-02-28T06:53:31;101775.09;;;14.37;46.40
59409;BME280;45213;32.654;-115.458;2023-02-28T06:55:58;101765.44;;;14.31;46.33
59409;BME280;45213;32.654;-115.458;2023-02-28T06:58:25;101769.84;;;14.34;46.63
59409;BME280;45213;32.654;-115.458;2023-02-28T07:00:52;101768.84;;;14.21;46.83
59409;BME280;45213;32.654;-115.458;2023-02-28T07:03:20;101766.19;;;14.15;47.03
59409;BME280;45213;32.654;-115.458;2023-02-28T07:05:46;101767.88;;;14.14;47.01
59409;BME280;45213;32.654;-115.458;2023-02-28T07:08:14;101764.38;;;14.11;47.08
59409;BME280;45213;32.654;-115.458;2023-02-28T07:10:40;101761.75;;;14.11;47.31
59409;BME280;45213;32.654;-115.458;2023-02-28T07:13:08;101775.66;;;14.05;47.17
59409;BME280;45213;32.654;-115.458;2023-02-28T07:15:36;101772.97;;;13.97;47.44
59409;BME280;45213;32.654;-115.458;2023-02-28T07:18:03;101761.63;;;13.98;47.16
59409;BME280;45213;32.654;-115.458;2023-02-28T07:20:30;101755.53;;;13.99;47.16
59409;BME280;45213;32.654;-115.458;2023-02-28T07:22:57;101753.75;;;13.95;47.47
59409;BME280;45213;32.654;-115.458;2023-02-28T07:25:25;101752.03;;;13.97;47.08
59409;BME280;45213;32.654;-115.458;2023-02-28T07:27:53;101751.16;;;14.00;47.11
59409;BME280;45213;32.654;-115.458;2023-02-28T07:30:20;101748.53;;;13.97;46.55
59409;BME280;45213;32.654;-115.458;2023-02-28T07:32:47;101740.72;;;14.02;46.85
59409;BME280;45213;32.654;-115.458;2023-02-28T07:35:13;101745.88;;;13.92;46.70
59409;BME280;45213;32.654;-115.458;2023-02-28T07:37:42;101743.22;;;13.91;47.29
59409;BME280;45213;32.654;-115.458;2023-02-28T07:40:10;101754.56;;;13.91;47.11
59409;BME280;45213;32.654;-115.458;2023-02-28T07:42:41;101748.47;;;13.94;47.43
59409;BME280;45213;32.654;-115.458;2023-02-28T07:45:09;101754.50;;;13.87;47.72
59409;BME280;45213;32.654;-115.458;2023-02-28T07:47:38;101753.66;;;13.86;47.66
59409;BME280;45213;32.654;-115.458;2023-02-28T07:50:07;101750.91;;;13.75;47.71
59409;BME280;45213;32.654;-115.458;2023-02-28T07:52:34;101753.53;;;13.77;47.79
59409;BME280;45213;32.654;-115.458;2023-02-28T07:55:02;101747.34;;;13.70;48.34
59409;BME280;45213;32.654;-115.458;2023-02-28T07:57:30;101751.63;;;13.64;48.41
59409;BME280;45213;32.654;-115.458;2023-02-28T07:59:57;101747.25;;;13.61;48.64
59409;BME280;45213;32.654;-115.458;2023-02-28T08:02:24;101735.94;;;13.64;49.10
59409;BME280;45213;32.654;-115.458;2023-02-28T08:04:51;101734.28;;;13.70;49.07
59409;BME280;45213;32.654;-115.458;2023-02-28T08:07:18;101734.13;;;13.60;49.18
59409;BME280;45213;32.654;-115.458;2023-02-28T08:09:45;101729.72;;;13.55;49.65
59409;BME280;45213;32.654;-115.458;2023-02-28T08:12:11;101729.72;;;13.55;49.81
59409;BME280;45213;32.654;-115.458;2023-02-28T08:14:39;101726.22;;;13.53;49.61
59409;BME280;45213;32.654;-115.458;2023-02-28T08:17:06;101723.66;;;13.56;49.67
59409;BME280;45213;32.654;-115.458;2023-02-28T08:19:32;101718.31;;;13.49;49.71
59409;BME280;45213;32.654;-115.458;2023-02-28T08:21:59;101721.75;;;13.43;50.13
59409;BME280;45213;32.654;-115.458;2023-02-28T08:24:26;101722.53;;;13.36;50.64
59409;BME280;45213;32.654;-115.458;2023-02-28T08:26:53;101720.56;;;13.23;51.79
59409;BME280;45213;32.654;-115.458;2023-02-28T08:29:19;101713.75;;;13.32;51.43
59409;BME280;45213;32.654;-115.458;2023-02-28T08:31:46;101716.38;;;13.32;51.14
59409;BME280;45213;32.654;-115.458;2023-02-28T08:34:15;101722.44;;;13.30;51.11
59409;BME280;45213;32.654;-115.458;2023-02-28T08:36:42;101723.25;;;13.27;51.82
59409;BME280;45213;32.654;-115.458;2023-02-28T08:39:11;101734.69;;;13.31;51.63
59409;BME280;45213;32.654;-115.458;2023-02-28T08:41:38;101737.13;;;13.23;51.37
59409;BME280;45213;32.654;-115.458;2023-02-28T08:44:05;101730.84;;;13.09;51.89
59409;BME280;45213;32.654;-115.458;2023-02-28T08:46:31;101721.22;;;13.05;51.91
59409;BME280;45213;32.654;-115.458;2023-02-28T08:48:58;101711.47;;;12.93;52.27
59409;BME280;45213;32.654;-115.458;2023-02-28T08:51:28;101714.97;;;12.95;51.92
59409;BME280;45213;32.654;-115.458;2023-02-28T08:53:58;101720.25;;;12.98;51.67
59409;BME280;45213;32.654;-115.458;2023-02-28T08:56:27;101730.72;;;13.00;51.54
59409;BME280;45213;32.654;-115.458;2023-02-28T08:58:56;101724.69;;;13.05;52.13
59409;BME280;45213;32.654;-115.458;2023-02-28T09:01:26;101719.47;;;13.04;52.26
59409;BME280;45213;32.654;-115.458;2023-02-28T09:03:54;101720.34;;;13.04;52.17
59409;BME280;45213;32.654;-115.458;2023-02-28T09:06:22;101721.22;;;13.05;52.29
59409;BME280;45213;32.654;-115.458;2023-02-28T09:08:50;101720.25;;;12.98;51.50
59409;BME280;45213;32.654;-115.458;2023-02-28T09:11:16;101721.03;;;12.94;51.71
59409;BME280;45213;32.654;-115.458;2023-02-28T09:13:45;101713.19;;;12.94;52.14
59409;BME280;45213;32.654;-115.458;2023-02-28T09:16:13;101700.88;;;12.84;52.81
59409;BME280;45213;32.654;-115.458;2023-02-28T09:18:40;101694.78;;;12.85;53.15
59409;BME280;45213;32.654;-115.458;2023-02-28T09:21:09;101692.91;;;12.74;52.43
59409;BME280;45213;32.654;-115.458;2023-02-28T09:23:37;101686.78;;;12.72;53.20
59409;BME280;45213;32.654;-115.458;2023-02-28T09:26:04;101684.16;;;12.72;52.90
59409;BME280;45213;32.654;-115.458;2023-02-28T09:28:31;101678.72;;;12.60;52.74
59409;BME280;45213;32.654;-115.458;2023-02-28T09:30:58;101675.06;;;12.47;53.69
59409;BME280;45213;32.654;-115.458;2023-02-28T09:33:26;101671.94;;;12.70;53.11
59409;BME280;45213;32.654;-115.458;2023-02-28T09:35:59;101668.41;;;12.68;52.56
59409;BME280;45213;32.654;-115.458;2023-02-28T09:38:27;101664.97;;;12.70;53.49
59409;BME280;45213;32.654;-115.458;2023-02-28T09:41:00;101664.03;;;12.65;53.68
59409;BME280;45213;32.654;-115.458;2023-02-28T09:43:37;101660.47;;;12.62;53.55
59409;BME280;45213;32.654;-115.458;2023-02-28T09:48:50;101651.56;;;12.47;54.86
59409;BME280;45213;32.654;-115.458;2023-02-28T09:54:20;101656.63;;;12.37;54.65
59409;BME280;45213;32.654;-115.458;2023-02-28T09:57:06;101654.03;;;12.40;53.77
59409;BME280;45213;32.654;-115.458;2023-02-28T10:05:05;101646.69;;;12.72;52.83
59409;BME280;45213;32.654;-115.458;2023-02-28T10:13:11;101626.97;;;12.95;51.63
59409;BME280;45213;32.654;-115.458;2023-02-28T10:15:39;101623.59;;;13.04;51.61
59409;BME280;45213;32.654;-115.458;2023-02-28T10:18:11;101610.63;;;13.13;51.14
59409;BME280;45213;32.654;-115.458;2023-02-28T10:20:39;101613.22;;;13.10;51.52
59409;BME280;45213;32.654;-115.458;2023-02-28T10:23:15;101608.91;;;13.15;51.19
59409;BME280;45213;32.654;-115.458;2023-02-28T10:25:59;101610.53;;;13.07;51.36
59409;BME280;45213;32.654;-115.458;2023-02-28T10:28:29;101600.97;;;13.06;51.66
59409;BME280;45213;32.654;-115.458;2023-02-28T10:30:57;101599.28;;;13.13;51.06
59409;BME280;45213;32.654;-115.458;2023-02-28T10:35:55;101592.22;;;13.04;51.41
59409;BME280;45213;32.654;-115.458;2023-02-28T10:38:25;101587.91;;;13.09;51.24
59409;BME280;45213;32.654;-115.458;2023-02-28T10:41:04;101580.03;;;13.06;51.50
59409;BME280;45213;32.654;-115.458;2023-02-28T10:43:31;101587.06;;;13.10;51.25
59409;BME280;45213;32.654;-115.458;2023-02-28T10:51:11;101588.84;;;13.13;51.55
59409;BME280;45213;32.654;-115.458;2023-02-28T10:53:54;101581.81;;;13.09;51.73
59409;BME280;45213;32.654;-115.458;2023-02-28T10:56:23;101580.84;;;13.02;51.92
59409;BME280;45213;32.654;-115.458;2023-02-28T11:03:52;101591.22;;;12.96;52.33
59409;BME280;45213;32.654;-115.458;2023-02-28T11:06:26;101594.78;;;13.00;52.20
59409;BME280;45213;32.654;-115.458;2023-02-28T11:08:55;101604.34;;;12.98;52.08
59409;BME280;45213;32.654;-115.458;2023-02-28T11:11:26;101598.19;;;12.92;52.14
59409;BME280;45213;32.654;-115.458;2023-02-28T11:13:57;101603.41;;;12.94;52.39
59409;BME280;45213;32.654;-115.458;2023-02-28T11:16:35;101612.97;;;12.92;52.41
59409;BME280;45213;32.654;-115.458;2023-02-28T11:19:04;101612.88;;;12.84;52.86
59409;BME280;45213;32.654;-115.458;2023-02-28T11:21:35;101613.75;;;12.85;53.02
59409;BME280;45213;32.654;-115.458;2023-02-28T11:24:27;101626.69;;;12.74;53.82
59409;BME280;45213;32.654;-115.458;2023-02-28T11:26:55;101621.41;;;12.69;53.88
59409;BME280;45213;32.654;-115.458;2023-02-28T11:29:24;101617.91;;;12.67;54.15
59409;BME280;45213;32.654;-115.458;2023-02-28T11:34:33;101611.09;;;12.82;53.85
59409;BME280;45213;32.654;-115.458;2023-02-28T11:37:01;101614.69;;;12.88;53.37
59409;BME280;45213;32.654;-115.458;2023-02-28T11:39:32;101613.00;;;12.93;53.51
59409;BME280;45213;32.654;-115.458;2023-02-28T11:42:29;101614.81;;;12.99;53.03
59409;BME280;45213;32.654;-115.458;2023-02-28T11:59:10;101617.53;;;13.08;48.82
59409;BME280;45213;32.654;-115.458;2023-02-28T12:07:26;101611.22;;;12.91;47.84
59409;BME280;45213;32.654;-115.458;2023-02-28T12:21:10;101630.91;;;12.64;48.52
59409;BME280;45213;32.654;-115.458;2023-02-28T12:26:43;101641.28;;;12.58;48.98
59409;BME280;45213;32.654;-115.458;2023-02-28T12:34:41;101631.00;;;12.70;48.10
59409;BME280;45213;32.654;-115.458;2023-02-28T12:37:37;101639.56;;;12.62;48.66
59409;BME280;45213;32.654;-115.458;2023-02-28T12:40:11;101635.22;;;12.61;48.63
59409;BME280;45213;32.654;-115.458;2023-02-28T12:42:44;101633.44;;;12.60;48.68
59409;BME280;45213;32.654;-115.458;2023-02-28T12:48:43;101648.25;;;12.59;48.33
59409;BME280;45213;32.654;-115.458;2023-02-28T12:51:12;101631.88;;;12.69;48.21
59409;BME280;45213;32.654;-115.458;2023-02-28T13:08:44;101619.25;;;12.41;49.74
59409;BME280;45213;32.654;-115.458;2023-02-28T13:10:48;101617.53;;;12.43;49.75
59409;BME280;45213;32.654;-115.458;2023-02-28T13:13:25;101620.91;;;12.37;50.05
59409;BME280;45213;32.654;-115.458;2023-02-28T13:16:07;101612.88;;;12.23;50.68
59409;BME280;45213;32.654;-115.458;2023-02-28T13:18:40;101612.84;;;12.20;50.67
59409;BME280;45213;32.654;-115.458;2023-02-28T13:21:22;101619.81;;;12.21;51.04
59409;BME280;45213;32.654;-115.458;2023-02-28T13:29:43;101622.00;;;11.95;51.91
59409;BME280;45213;32.654;-115.458;2023-02-28T13:34:40;101618.50;;;11.93;51.64
59409;BME280;45213;32.654;-115.458;2023-02-28T13:39:51;101615.09;;;11.97;50.98
59409;BME280;45213;32.654;-115.458;2023-02-28T13:47:33;101617.06;;;12.12;50.20
59409;BME280;45213;32.654;-115.458;2023-02-28T13:56:19;101614.75;;;12.32;48.96
59409;BME280;45213;32.654;-115.458;2023-02-28T14:07:45;101636.91;;;12.57;48.37
59409;BME280;45213;32.654;-115.458;2023-02-28T14:10:33;101633.50;;;12.64;47.89
59409;BME280;45213;32.654;-115.458;2023-02-28T14:13:49;101638.09;;;12.79;47.22
59409;BME280;45213;32.654;-115.458;2023-02-28T14:16:00;101647.75;;;12.86;47.05
59409;BME280;45213;32.654;-115.458;2023-02-28T14:18:36;101654.78;;;12.92;47.26
59409;BME280;45213;32.654;-115.458;2023-02-28T14:21:21;101653.03;;;12.88;47.47
59409;BME280;45213;32.654;-115.458;2023-02-28T14:24:08;101660.78;;;12.85;47.34
59409;BME280;45213;32.654;-115.458;2023-02-28T14:27:00;101683.34;;;12.77;48.00
59409;BME280;45213;32.654;-115.458;2023-02-28T14:38:17;101684.94;;;14.12;45.08
59409;BME280;45213;32.654;-115.458;2023-02-28T14:40:50;101682.97;;;14.99;43.39
59409;BME280;45213;32.654;-115.458;2023-02-28T14:43:26;101699.00;;;15.73;40.92
59409;BME280;45213;32.654;-115.458;2023-02-28T14:46:00;101703.31;;;17.14;38.54
59409;BME280;45213;32.654;-115.458;2023-02-28T14:48:27;101692.41;;;17.97;36.51
59409;BME280;45213;32.654;-115.458;2023-02-28T14:50:57;101693.59;;;18.60;35.28
59409;BME280;45213;32.654;-115.458;2023-02-28T14:53:30;101699.75;;;19.40;33.88
59409;BME280;45213;32.654;-115.458;2023-02-28T14:56:01;101696.94;;;19.54;33.45
59409;BME280;45213;32.654;-115.458;2023-02-28T14:58:31;101700.63;;;20.05;32.58
59409;BME280;45213;32.654;-115.458;2023-02-28T15:01:00;101690.19;;;20.48;32.13
59409;BME280;45213;32.654;-115.458;2023-02-28T15:03:36;101687.38;;;20.60;31.74
59409;BME280;45213;32.654;-115.458;2023-02-28T15:06:05;101697.25;;;20.97;31.40
59409;BME280;45213;32.654;-115.458;2023-02-28T15:08:32;101698.25;;;21.35;30.84
59409;BME280;45213;32.654;-115.458;2023-02-28T15:11:16;101694.09;;;21.64;30.68
59409;BME280;45213;32.654;-115.458;2023-02-28T15:13:53;101701.84;;;22.12;30.00
59409;BME280;45213;32.654;-115.458;2023-02-28T15:16:23;101710.81;;;22.44;29.47
59409;BME280;45213;32.654;-115.458;2023-02-28T15:19:17;101718.44;;;22.56;29.70
59409;BME280;45213;32.654;-115.458;2023-02-28T15:21:49;101723.38;;;22.70;29.52
59409;BME280;45213;32.654;-115.458;2023-02-28T15:24:20;101726.59;;;22.11;29.81